Aérodrome :
LOGIN :

S'inscrire | Disclaimer

   EN    FR    IT 

 










Légende :    VFR   VFR Marginal   IFR   IFR Intensif   IFR Très Intensif
Visi : 
Plafond : 
>= 8 km
>= 3000ft
5 à 8 km
1000 à 3000 ft
1500m à 5 km
500 à 1000 ft
800 à 1500m
200 à 500 ft
< 800m
< 200 ft
Symboles :   Orages  Brouillard  Fortes neiges  Fortes précipitations  Vent > 20 kt
SIGMETs :   Divers  Orages  Givrage  Turbulence  Onde Orograph.  Cendres Volcan.






- Altitude de l'aérodrome : 22 ft
- Code IATA : LDY


EGAE - Londonderry Eglington

DERNIER METAR :
  • 271650Z 26009KT 9999 VCSH FEW011CB FEW020 05/04 Q1006

METARs EXPIRÉS :
  • 271620Z 25010KT 9999 VCSH FEW012CB FEW018 06/02 Q1006
  • 271550Z 24011KT 9999 VCSH FEW014CB FEW028 06/03 Q1006
  • 271520Z 23010KT 9999 VCSH FEW016CB FEW028 06/04 Q1006
  • 271450Z 26012KT 9999 VCSH FEW016 SCT028 05/03 Q1006
  • 271420Z 29018G29KT 9999 -SHRA SCT018 SCT032 05/03 Q1006

TAF TAF EGAE
Valide du 27 à 15h jusqu'au 27 à 21h UTC


271355Z 2715/2721 26012KT 9999 FEW010 SCT030
PROB30
TEMPO 2715/2717 28016G26KT 6000 SHRA SCT008 BKN012CB
BECMG 2717/2720 20014KT



MET'MAP, la Météo Aéronautique d'un coup d'oeil ! - Copyright ORBIFLY Décembre 2007 - Disclaimer

ORBIFLY MET'MAP TEAM :

Programmation & Développement : Alexandra Zaïnal
Sur une idée originale de : Baudouin d'Aumeries
Assistance à la programmation : Marc-Olivier Méhu
Soutien technique & logistique : Manuel Goepfert

Contact : metmap@orbifly.com




SOURCES & CREDITS :

   NOAA